YPEA

RAAF Base Pearce Airport

Bullsbrook, Australia
TAF AMD YPEA 180837Z 1809/1824 25015G25KT 9999 -SHRA SCT040 FM181100 23012KT 9999 -SHRA SCT025 FM181800 05005KT 9999 SCT035 INTER 1809/1815 24020G30KT 4000 SHRA SCT010 BKN030 PROB30 INTER 1810/1811 24025G35KT 2000 TSRA SCT010 BKN030 FEW030CB
Issued Valid From Valid To
Oct-18 @ 08:37 UTC
(3 hours ago)
Oct-18 @ 09:00 UTC
(3 hours ago)
Oct-19 @ 00:00 UTC
(in 12 hours)
Expired Click to View Oct-18 @ 09:00 to Oct-18 @ 11:00
TAF AMD YPEA 180837Z 1809/1824 25015G25KT 9999 -SHRA SCT040
Wind Visibility Clouds Conditions
250° at 15 knots
 Gusting to 25 knots
10,000+ meters
  • Scattered at 4,000' AGL
  • Light Rain
Temporary Oct-18 @ 09:00 to Oct-18 @ 15:00
INTER 1809/1815 24020G30KT 4000 SHRA SCT010 BKN030
Wind Visibility Clouds Conditions
240° at 20 knots
 Gusting to 30 knots
4,007 meters
  • Scattered at 1,000' AGL
  • Broken at 3,000' AGL
  • Rain
Expired Click to View Oct-18 @ 10:00 to Oct-18 @ 11:00
PROB30 INTER 1810/1811 24025G35KT 2000 TSRA SCT010 BKN030 FEW030CB
Wind Visibility Clouds Conditions
240° at 25 knots
 Gusting to 35 knots
1,996 meters
  • Scattered at 1,000' AGL
  • Broken at 3,000' AGL
  • Few at 3,000' AGL
  • Thunderstorm
  • Rain
From Oct-18 @ 11:00 to Oct-18 @ 18:00
FM181100 23012KT 9999 -SHRA SCT025
Wind Visibility Clouds Conditions
230° at 12 knots 10,000+ meters
  • Scattered at 2,500' AGL
  • Light Rain
From Oct-18 @ 18:00 to Oct-19 @ 00:00
FM181800 05005KT 9999 SCT035
Wind Visibility Clouds
50° at 5 knots 10,000+ meters
  • Scattered at 3,500' AGL
TAF AMD YPEA 180837Z 1809/1824 25015G25KT 9999 -SHRA SCT040 FM181100 23012KT 9999 -SHRA SCT025 FM181800 05005KT 9999 SCT035 INTER 1809/1815 24020G30KT 4000 SHRA SCT010 BKN030 PROB30 INTER 1810/1811 24025G35KT 2000 TSRA SCT010 BKN030 FEW030CB
Issued Oct-18 @ 08:37 UTC
(3 hours ago)
Valid From Oct-18 @ 09:00 UTC
(3 hours ago)
Valid To Oct-19 @ 00:00 UTC
(in 12 hours)
Oct-18 @ 09:00 - Oct-18 @ 11:00
Wind Visibility
250° at 15 knots
 Gusting to 25 knots
10,000+ meters
Clouds
  • Scattered at 4,000' AGL
Conditions
  • Light Rain
Temporary Oct-18 @ 09:00 - Oct-18 @ 15:00
Wind Visibility
240° at 20 knots
 Gusting to 30 knots
4,007 meters
Clouds
  • Scattered at 1,000' AGL
  • Broken at 3,000' AGL
Conditions
  • Rain
Oct-18 @ 10:00 - Oct-18 @ 11:00
Wind Visibility
240° at 25 knots
 Gusting to 35 knots
1,996 meters
Clouds
  • Scattered at 1,000' AGL
  • Broken at 3,000' AGL
  • Few at 3,000' AGL
Conditions
  • Thunderstorm
  • Rain
From Oct-18 @ 11:00 - Oct-18 @ 18:00
Wind Visibility
230° at 12 knots 10,000+ meters
Clouds
  • Scattered at 2,500' AGL
Conditions
  • Light Rain
From Oct-18 @ 18:00 - Oct-19 @ 00:00
Wind Visibility
50° at 5 knots 10,000+ meters
Clouds
  • Scattered at 3,500' AGL